Valdosta Regional Airport
KVLD : rendu visible

Aérodrome :











RETROUVEZ-NOUS SUR...

 
LOGIN :

S'inscrire | Disclaimer

   EN    FR    IT 

 









Légende :    VFR   VFR Marginal   IFR   IFR Intensif   IFR Très Intensif
Visi : 
Plafond : 
>= 8 km
>= 3000ft
5 à 8 km
1000 à 3000 ft
1500m à 5 km
500 à 1000 ft
800 à 1500m
200 à 500 ft
< 800m
< 200 ft
Symboles :   Orages  Brouillard  Fortes neiges  Fortes précipitations  Vent > 20 kt






- Altitude de l'aérodrome : 203 ft
- Code IATA : VLD


KVLD - Valdosta Regional

DERNIER METAR :
  • 111853Z VRB04KT 10SM CLR 25/13 A3009 RMK AO2 SLP197 T02500128 $

METARs EXPIRÉS :
  • 111753Z VRB06KT 10SM CLR 24/13 A3012 RMK AO2 SLP208 T02440128 10244 20056 58024 $
  • 111653Z VRB04KT 10SM CLR 23/12 A3016 RMK AO2 SLP221 T02280117 $

TAF KVLD
Valide du 11 à 18h jusqu'au 12 à 18h UTC


111720Z 1118/1218 VRB03KT P6SM SCT045 SCT250
FM121500 27005KT 5SM BR BKN020



MET'MAP, la Météo Aéronautique d'un coup d'oeil ! - Copyright ORBIFLY Décembre 2007 - Disclaimer

ORBIFLY MET'MAP TEAM :

Programmation & Développement : Alexandra Zaïnal
Conception & Développement : Baudouin d'Aumeries
Co-Programmation & Développement : Marc-Olivier Méhu
Soutien technique & logistique : Manuel Goepfert

Contact : metmap@orbifly.com




SOURCES & CREDITS :

   NOAA       Earth
Advisory